Time;durP1;ratioP1;P1;durP2;ratioP2;P2;SDS_P1;SDS_P2;PMS_P1;PMS_P2;Temp;Humidity;BMP_temperature;BMP_pressure;BME280_temperature;BME280_humidity;BME280_pressure;Samples;Min_cycle;Max_cycle;Signal;HPM_P1;HPM_P2
2022/08/19 00:04:39;;;;;;;13.90;12.57;;;25.90;99.90;;;;;;10424503;28;20301;-81
2022/08/19 00:09:42;;;;;;;13.00;11.70;;;25.90;99.90;;;;;;10410167;28;20263;-81
2022/08/19 00:14:45;;;;;;;13.05;11.75;;;25.90;99.90;;;;;;10409735;28;20226;-81
2022/08/19 00:19:48;;;;;;;12.55;11.45;;;25.90;99.90;;;;;;10432070;28;20478;-81
2022/08/19 00:24:50;;;;;;;13.30;12.02;;;25.90;99.90;;;;;;10409490;28;20281;-81
2022/08/19 00:29:53;;;;;;;13.63;12.32;;;25.90;99.90;;;;;;10412877;28;20243;-81
2022/08/19 00:34:56;;;;;;;12.55;11.45;;;25.90;99.90;;;;;;10451322;28;20265;-81
2022/08/19 00:39:58;;;;;;;13.02;11.75;;;25.90;99.90;;;;;;10450973;28;20236;-81
2022/08/19 00:45:01;;;;;;;12.73;11.55;;;25.90;99.90;;;;;;10418116;28;20273;-81
2022/08/19 00:50:04;;;;;;;12.63;11.35;;;25.90;99.90;;;;;;10407207;28;20250;-81
2022/08/19 00:55:11;;;;;;;12.60;11.43;;;25.90;99.90;;;;;;10411059;28;20223;-81
2022/08/19 01:00:17;;;;;;;13.32;11.95;;;25.90;99.90;;;;;;10446852;28;20231;-81
2022/08/19 01:05:28;;;;;;;13.90;12.60;;;25.90;99.90;;;;;;10429039;28;20290;-81
2022/08/19 01:10:35;;;;;;;12.75;11.52;;;25.90;99.90;;;;;;10416450;28;20262;-81
2022/08/19 01:15:44;;;;;;;13.35;12.00;;;25.90;99.90;;;;;;10449162;28;20223;-81
2022/08/19 01:20:47;;;;;;;13.50;12.15;;;25.90;99.90;;;;;;10410526;28;20297;-81
2022/08/19 01:25:52;;;;;;;13.77;12.57;;;25.90;99.90;;;;;;10426924;28;20235;-81
2022/08/19 01:30:55;;;;;;;12.20;11.15;;;25.90;99.90;;;;;;10408662;28;20243;-81
2022/08/19 01:36:06;;;;;;;12.82;11.73;;;25.90;99.90;;;;;;10426569;28;20245;-81
2022/08/19 01:41:11;;;;;;;13.15;11.85;;;25.90;99.90;;;;;;10373899;28;20286;-81
2022/08/19 01:46:13;;;;;;;12.90;11.60;;;25.90;99.90;;;;;;10391156;28;20296;-81
2022/08/19 01:51:16;;;;;;;12.32;11.23;;;25.80;99.90;;;;;;10449370;28;20246;-80
2022/08/19 01:56:19;;;;;;;13.93;12.20;;;25.80;99.90;;;;;;10450927;28;20234;-81
2022/08/19 02:01:22;;;;;;;12.38;11.27;;;25.80;99.90;;;;;;10428629;28;20234;-80
2022/08/19 02:06:29;;;;;;;12.80;11.60;;;25.80;99.90;;;;;;10437189;28;20735;-81
2022/08/19 02:11:33;;;;;;;12.65;11.50;;;25.80;99.90;;;;;;10430138;28;20262;-81
2022/08/19 02:16:36;;;;;;;11.05;10.05;;;25.80;99.90;;;;;;10456032;28;20222;-81
2022/08/19 02:21:39;;;;;;;13.38;11.98;;;25.90;99.90;;;;;;10418364;28;20235;-81
2022/08/19 02:26:41;;;;;;;12.00;10.90;;;25.80;99.90;;;;;;10373438;28;20684;-81
2022/08/19 02:31:45;;;;;;;12.18;11.07;;;25.80;99.90;;;;;;10374108;28;20331;-81
2022/08/19 02:36:47;;;;;;;12.82;11.63;;;25.80;99.90;;;;;;10397036;28;20232;-81
2022/08/19 02:41:53;;;;;;;11.88;10.77;;;25.80;99.90;;;;;;10380191;28;20308;-81
2022/08/19 02:46:55;;;;;;;12.15;10.95;;;25.80;99.90;;;;;;10412439;28;20223;-80
2022/08/19 02:51:58;;;;;;;12.32;11.23;;;25.80;99.90;;;;;;10412263;28;20301;-80
2022/08/19 02:57:02;;;;;;;12.93;11.75;;;25.80;99.90;;;;;;10417165;28;20725;-80
2022/08/19 03:02:04;;;;;;;12.45;11.25;;;25.80;99.90;;;;;;10415856;28;20227;-80
2022/08/19 03:07:08;;;;;;;13.50;12.30;;;25.80;99.90;;;;;;10411697;28;20263;-81
2022/08/19 03:12:12;;;;;;;12.43;10.80;;;25.80;99.90;;;;;;10428237;28;20262;-81
2022/08/19 03:17:15;;;;;;;12.68;11.45;;;25.80;99.90;;;;;;10451855;28;20226;-80
2022/08/19 03:22:17;;;;;;;11.60;10.50;;;25.80;99.90;;;;;;10435320;28;20679;-80
2022/08/19 03:27:20;;;;;;;11.73;10.68;;;25.80;99.90;;;;;;10411849;28;20235;-80
2022/08/19 03:32:23;;;;;;;12.18;10.98;;;25.70;99.90;;;;;;10412633;28;20266;-81
2022/08/19 03:37:34;;;;;;;11.55;10.55;;;25.70;99.90;;;;;;10409149;28;20330;-82
2022/08/19 03:42:37;;;;;;;11.82;10.73;;;25.80;99.90;;;;;;10409198;28;20235;-81
2022/08/19 03:47:50;;;;;;;13.25;12.05;;;25.70;99.90;;;;;;10399326;28;20257;-81
2022/08/19 03:52:53;;;;;;;13.90;11.18;;;25.80;99.90;;;;;;10409338;28;20256;-81
2022/08/19 03:57:56;;;;;;;11.38;10.38;;;25.80;99.90;;;;;;10420570;28;20738;-81
2022/08/19 04:03:00;;;;;;;12.02;10.88;;;25.80;99.90;;;;;;10410894;28;20203;-81
2022/08/19 04:08:05;;;;;;;11.93;10.77;;;25.80;99.90;;;;;;10407719;28;20235;-82
2022/08/19 04:13:15;;;;;;;14.20;12.63;;;25.70;99.90;;;;;;10408322;28;20259;-81
2022/08/19 04:18:17;;;;;;;14.25;12.90;;;25.70;99.90;;;;;;10408123;28;20293;-83
2022/08/19 04:23:20;;;;;;;14.20;12.45;;;25.70;99.90;;;;;;10408550;28;20301;-82
2022/08/19 04:28:23;;;;;;;16.75;11.88;;;25.70;99.90;;;;;;10408554;28;20722;-81
2022/08/19 04:33:28;;;;;;;14.82;12.75;;;25.80;99.90;;;;;;10407802;28;20301;-81
2022/08/19 04:38:31;;;;;;;14.05;12.63;;;25.80;99.90;;;;;;10408505;28;20697;-82
2022/08/19 04:43:35;;;;;;;12.50;11.30;;;25.80;99.90;;;;;;10408784;28;20239;-82
2022/08/19 04:48:38;;;;;;;14.30;12.45;;;25.90;99.90;;;;;;10406338;28;20247;-81
2022/08/19 04:53:52;;;;;;;15.15;12.63;;;25.90;99.90;;;;;;10391453;28;20743;-82
2022/08/19 04:58:56;;;;;;;13.82;12.38;;;26.00;99.90;;;;;;10409542;28;20239;-82
2022/08/19 05:04:00;;;;;;;14.18;12.75;;;25.90;99.90;;;;;;10408163;28;20285;-82
2022/08/19 05:09:04;;;;;;;12.68;11.50;;;25.90;99.90;;;;;;10409075;28;20266;-81
2022/08/19 05:14:08;;;;;;;13.15;11.95;;;26.00;99.90;;;;;;10406610;28;20255;-82
2022/08/19 05:24:35;;;;;;;13.35;12.05;;;25.90;99.90;;;;;;10405437;28;20350;-81
2022/08/19 05:29:57;;;;;;;13.98;12.43;;;26.00;99.90;;;;;;10407066;28;20235;-82
2022/08/19 05:35:00;;;;;;;14.88;11.88;;;26.00;99.90;;;;;;10417063;28;20344;-82
2022/08/19 05:40:04;;;;;;;15.05;11.95;;;25.90;99.90;;;;;;10413217;28;20203;-82
2022/08/19 05:45:07;;;;;;;13.55;12.23;;;26.00;99.90;;;;;;10466264;23;20270;-81
2022/08/19 05:50:10;;;;;;;13.48;12.07;;;26.00;99.90;;;;;;10457818;28;20246;-81
2022/08/19 05:55:13;;;;;;;12.80;11.60;;;26.00;99.90;;;;;;10455482;28;20284;-81
2022/08/19 06:00:16;;;;;;;12.52;11.43;;;26.00;99.90;;;;;;10455899;28;20227;-82
2022/08/19 06:05:23;;;;;;;13.15;11.88;;;26.00;99.90;;;;;;10439075;28;20276;-81
2022/08/19 06:10:27;;;;;;;13.98;11.68;;;26.10;99.90;;;;;;10435545;28;20238;-82
2022/08/19 06:15:30;;;;;;;14.07;12.57;;;26.10;99.90;;;;;;10422468;28;20214;-81
2022/08/19 06:20:32;;;;;;;15.98;12.10;;;26.10;99.90;;;;;;10435979;28;20578;-81
2022/08/19 06:25:55;;;;;;;15.90;13.95;;;26.00;99.90;;;;;;10424663;28;20223;-81
2022/08/19 06:30:57;;;;;;;19.05;13.80;;;26.10;99.90;;;;;;10434253;28;20254;-81
2022/08/19 06:36:00;;;;;;;16.88;12.98;;;26.10;99.90;;;;;;10453471;28;20257;-81
2022/08/19 06:41:04;;;;;;;13.70;11.95;;;26.20;99.90;;;;;;10435492;28;20659;-80
2022/08/19 06:46:11;;;;;;;15.20;13.35;;;26.20;99.90;;;;;;10434182;28;20274;-81
2022/08/19 06:51:20;;;;;;;14.48;13.02;;;26.20;99.90;;;;;;10453543;28;20624;-82
2022/08/19 06:56:30;;;;;;;13.50;12.18;;;26.20;99.90;;;;;;10450015;28;20694;-82
2022/08/19 07:01:45;;;;;;;17.10;12.75;;;26.20;99.90;;;;;;10422071;28;20292;-81
2022/08/19 07:06:49;;;;;;;13.20;11.98;;;26.10;99.90;;;;;;10450180;28;20238;-80
2022/08/19 07:11:56;;;;;;;14.48;12.85;;;26.20;99.90;;;;;;10448978;28;20238;-81
2022/08/19 07:16:59;;;;;;;18.80;13.48;;;26.30;99.90;;;;;;10431550;28;20302;-81
2022/08/19 07:22:03;;;;;;;20.65;14.02;;;26.40;99.90;;;;;;10452926;28;20658;-81
2022/08/19 07:27:07;;;;;;;14.60;13.10;;;26.60;99.90;;;;;;10447988;28;20679;-81
2022/08/19 07:32:16;;;;;;;14.18;12.85;;;26.70;99.90;;;;;;10431279;28;20250;-81
2022/08/19 07:37:18;;;;;;;16.83;13.25;;;26.80;99.90;;;;;;10423621;28;20243;-80
2022/08/19 07:42:21;;;;;;;17.92;14.15;;;26.80;99.90;;;;;;10447687;28;20664;-81
2022/08/19 07:47:23;;;;;;;16.40;13.90;;;26.80;99.90;;;;;;10449133;28;20259;-81
2022/08/19 07:52:46;;;;;;;17.63;13.93;;;26.80;99.90;;;;;;10449920;28;20292;-81
2022/08/19 07:57:52;;;;;;;17.17;12.95;;;26.90;99.90;;;;;;10432284;28;20238;-81
2022/08/19 08:02:54;;;;;;;19.60;13.23;;;27.00;99.90;;;;;;10449053;28;20597;-81
2022/08/19 08:13:18;;;;;;;18.55;14.35;;;27.30;99.90;;;;;;10422207;28;20250;-81
2022/08/19 08:18:21;;;;;;;14.52;13.00;;;27.30;99.90;;;;;;10390321;28;20259;-81
2022/08/19 08:23:29;;;;;;;17.52;13.25;;;27.10;99.90;;;;;;10442351;28;20238;-81
2022/08/19 08:28:32;;;;;;;16.73;11.57;;;27.20;99.90;;;;;;10444586;28;20281;-81
2022/08/19 08:33:34;;;;;;;15.32;12.57;;;27.20;99.90;;;;;;10447027;28;20249;-81
2022/08/19 08:38:38;;;;;;;14.32;12.75;;;27.40;99.90;;;;;;10418486;28;20335;-81
2022/08/19 08:43:47;;;;;;;14.52;13.13;;;27.80;99.90;;;;;;10432605;28;20250;-81
2022/08/19 08:48:57;;;;;;;14.77;12.63;;;27.70;99.90;;;;;;10432855;28;20574;-82
2022/08/19 08:54:07;;;;;;;40.47;15.43;;;27.80;99.90;;;;;;10448821;28;20711;-81
2022/08/19 08:59:32;;;;;;;14.93;13.32;;;28.20;99.90;;;;;;10447919;28;20249;-80
2022/08/19 09:04:37;;;;;;;18.80;14.25;;;28.20;99.90;;;;;;10429349;28;20242;-81
2022/08/19 09:09:46;;;;;;;13.32;12.05;;;28.60;99.90;;;;;;10431095;28;20695;-82
2022/08/19 09:14:58;;;;;;;18.20;14.30;;;28.60;99.90;;;;;;10446367;28;20315;-82
2022/08/19 09:20:07;;;;;;;21.35;15.82;;;28.30;99.90;;;;;;10394904;28;20234;-81
2022/08/19 09:25:14;;;;;;;18.70;16.80;;;28.30;99.90;;;;;;10423096;28;20204;-81
2022/08/19 09:30:21;;;;;;;17.45;15.38;;;28.30;99.90;;;;;;10423682;28;20699;-81
2022/08/19 09:35:26;;;;;;;20.40;15.88;;;28.90;99.90;;;;;;10390007;28;20263;-81
2022/08/19 09:40:30;;;;;;;23.50;16.83;;;29.20;99.90;;;;;;10407736;28;20243;-81
2022/08/19 09:45:40;;;;;;;20.73;15.23;;;29.40;99.90;;;;;;10421988;28;20972;-81
2022/08/19 09:50:42;;;;;;;20.50;15.65;;;29.30;99.90;;;;;;10086682;28;10000324;-81
2022/08/19 09:55:55;;;;;;;24.90;14.77;;;29.50;99.90;;;;;;10426955;28;20249;-81
2022/08/19 10:00:59;;;;;;;20.50;15.43;;;29.60;99.90;;;;;;10443781;28;20288;-81
2022/08/19 10:06:04;;;;;;;19.50;15.52;;;29.70;99.90;;;;;;10440767;28;20222;-81
2022/08/19 10:11:17;;;;;;;49.63;17.10;;;29.40;99.90;;;;;;10410966;28;20759;-80
2022/08/19 10:16:38;;;;;;;33.20;16.65;;;29.70;99.90;;;;;;10417133;28;20234;-80
2022/08/19 10:21:41;;;;;;;20.58;14.35;;;;;;;;;;10429719;28;20579;-80
2022/08/19 10:26:47;;;;;;;22.33;12.60;;;30.10;99.90;;;;;;10449015;28;20307;-80
2022/08/19 10:31:58;;;;;;;32.92;14.20;;;30.40;99.90;;;;;;10449911;28;20316;-80
2022/08/19 10:37:05;;;;;;;29.13;14.90;;;30.40;99.90;;;;;;10450941;28;20227;-81
2022/08/19 10:42:12;;;;;;;23.58;13.13;;;30.40;99.90;;;;;;10430704;28;20739;-81
2022/08/19 10:47:15;;;;;;;22.88;13.35;;;30.50;99.90;;;;;;10428565;28;20300;-81
2022/08/19 10:52:33;;;;;;;19.30;12.45;;;30.60;99.90;;;;;;10449731;28;20254;-81
2022/08/19 10:57:40;;;;;;;21.33;13.68;;;30.50;99.90;;;;;;10428850;28;20284;-82
2022/08/19 11:03:04;;;;;;;20.98;13.05;;;30.60;99.90;;;;;;10428732;28;20284;-81
2022/08/19 11:08:11;;;;;;;16.70;11.98;;;;;;;;;;10431262;28;20242;-82
2022/08/19 11:13:25;;;;;;;16.25;11.55;;;30.50;99.90;;;;;;10446417;28;20565;-82
2022/08/19 11:18:27;;;;;;;20.35;11.50;;;30.60;99.90;;;;;;10429345;28;20234;-81
2022/08/19 11:23:30;;;;;;;16.35;12.27;;;30.80;99.90;;;;;;10430233;28;20715;-81
2022/08/19 11:28:32;;;;;;;15.57;12.13;;;30.60;99.90;;;;;;10430769;28;20741;-82
2022/08/19 11:33:36;;;;;;;15.77;11.45;;;30.80;99.90;;;;;;10426707;28;20715;-81
2022/08/19 11:38:39;;;;;;;12.57;11.27;;;30.80;99.90;;;;;;10446484;28;20230;-81
2022/08/19 11:43:43;;;;;;;18.17;12.00;;;30.70;99.90;;;;;;10446858;28;20264;-80
2022/08/19 11:48:46;;;;;;;22.65;10.70;;;30.70;99.90;;;;;;10444304;28;20691;-81
2022/08/19 11:53:50;;;;;;;14.35;10.52;;;30.90;99.40;;;;;;10429693;28;20292;-82
2022/08/19 11:58:53;;;;;;;14.80;11.27;;;30.80;99.90;;;;;;10446351;28;20269;-81
2022/08/19 12:03:57;;;;;;;20.73;9.93;;;30.90;99.90;;;;;;10405721;28;20234;-81
2022/08/19 12:09:05;;;;;;;16.90;10.88;;;;;;;;;;10423674;28;20242;-80
2022/08/19 12:14:11;;;;;;;12.65;10.38;;;31.00;99.00;;;;;;10441206;28;20289;-81
2022/08/19 12:19:16;;;;;;;13.48;9.85;;;30.90;99.90;;;;;;10425974;28;20227;-82
2022/08/19 12:24:24;;;;;;;14.77;11.32;;;;;;;;;;10422864;28;20293;-80
2022/08/19 12:29:29;;;;;;;12.27;9.93;;;30.80;99.90;;;;;;10431722;28;20257;-79
2022/08/19 12:34:32;;;;;;;10.45;8.90;;;30.60;99.90;;;;;;10450601;28;20258;-80
2022/08/19 12:39:38;;;;;;;14.93;9.35;;;30.80;99.90;;;;;;10449168;28;20227;-79
2022/08/19 12:44:42;;;;;;;12.38;10.82;;;31.10;98.70;;;;;;10416651;28;20269;-79
2022/08/19 12:49:46;;;;;;;14.30;11.18;;;31.30;99.90;;;;;;10441464;28;20285;-81
2022/08/19 12:54:57;;;;;;;10.63;9.27;;;31.00;99.90;;;;;;10416847;28;20266;-81
2022/08/19 13:00:03;;;;;;;12.68;10.35;;;31.20;98.60;;;;;;10450003;28;20616;-81
2022/08/19 13:05:10;;;;;;;12.45;10.98;;;31.20;99.90;;;;;;10450846;28;20291;-81
2022/08/19 13:10:16;;;;;;;16.75;10.13;;;31.20;99.90;;;;;;10449633;28;20311;-81
2022/08/19 13:15:20;;;;;;;17.73;9.52;;;31.50;99.90;;;;;;10446834;28;20784;-80
2022/08/19 13:20:25;;;;;;;10.70;9.35;;;31.50;99.70;;;;;;10450573;28;20616;-80
2022/08/19 13:25:28;;;;;;;18.42;12.32;;;31.40;99.70;;;;;;10448651;28;20234;-80
2022/08/19 13:35:58;;;;;;;20.63;12.00;;;31.40;99.90;;;;;;10441910;28;20258;-79
2022/08/19 13:41:05;;;;;;;13.02;11.30;;;31.20;99.90;;;;;;10439976;28;20285;-79
2022/08/19 13:46:15;;;;;;;13.65;11.85;;;30.80;99.90;;;;;;10412399;28;20267;-81
2022/08/19 14:07:50;;;;;;;16.80;13.65;;;30.60;99.90;;;;;;10540993;23;20286;-91
2022/08/19 14:12:55;;;;;;;20.75;13.73;;;30.80;99.90;;;;;;10177645;29;20250;-90
2022/08/19 14:17:58;;;;;;;18.52;15.88;;;30.70;99.90;;;;;;10176300;29;20308;-91
2022/08/19 14:23:00;;;;;;;24.63;14.30;;;30.60;99.90;;;;;;10159162;29;20609;-92
2022/08/19 14:28:03;;;;;;;21.98;14.60;;;30.70;99.90;;;;;;10186983;29;20207;-91
2022/08/19 14:33:07;;;;;;;17.73;14.25;;;30.60;99.90;;;;;;10182854;29;20255;-90
2022/08/19 14:38:17;;;;;;;17.52;14.48;;;30.50;99.90;;;;;;10176862;29;20286;-91
2022/08/19 14:43:29;;;;;;;16.20;14.50;;;30.30;99.90;;;;;;10216822;23;20262;-80
2022/08/19 14:48:32;;;;;;;16.75;15.00;;;30.30;99.90;;;;;;10212512;29;20230;-79
2022/08/19 14:53:34;;;;;;;19.33;15.48;;;30.20;99.90;;;;;;10195284;29;20255;-80
2022/08/19 14:58:39;;;;;;;18.80;15.35;;;30.00;99.90;;;;;;10195265;29;20231;-80
2022/08/19 15:03:42;;;;;;;16.15;14.45;;;29.80;99.90;;;;;;10194071;29;20289;-79
2022/08/19 15:08:45;;;;;;;18.10;15.07;;;29.90;99.90;;;;;;10212574;29;20592;-80
2022/08/19 15:13:48;;;;;;;23.02;16.23;;;29.90;99.90;;;;;;10211415;29;20729;-80
2022/08/19 15:18:54;;;;;;;20.55;16.00;;;29.70;99.90;;;;;;10212095;29;20281;-80
2022/08/19 15:24:00;;;;;;;17.65;14.80;;;29.60;99.90;;;;;;10211070;29;20253;-80
2022/08/19 15:29:04;;;;;;;18.08;15.13;;;29.50;99.90;;;;;;10210019;29;20238;-80
2022/08/19 15:34:07;;;;;;;18.33;15.07;;;29.40;99.90;;;;;;10193782;29;20635;-80
2022/08/19 15:39:09;;;;;;;16.90;15.13;;;29.30;99.90;;;;;;10192673;29;20340;-80
2022/08/19 15:44:14;;;;;;;15.73;14.18;;;29.20;99.90;;;;;;10210060;29;20619;-81
2022/08/19 15:49:19;;;;;;;17.08;14.32;;;29.20;99.90;;;;;;9864645;29;10000502;-80
2022/08/19 15:54:21;;;;;;;16.10;14.57;;;29.00;99.90;;;;;;10203724;29;20297;-80
2022/08/19 16:10:13;;;;;;;15.63;14.13;;;28.80;99.90;;;;;;10205468;29;20305;-80
2022/08/19 16:15:29;;;;;;;15.07;13.52;;;28.70;99.90;;;;;;10177225;29;20321;-81
2022/08/19 16:20:32;;;;;;;16.55;14.95;;;28.60;99.90;;;;;;10206438;29;20242;-80
2022/08/19 16:25:38;;;;;;;15.35;13.05;;;28.50;99.90;;;;;;10185094;29;20234;-82
2022/08/19 16:30:41;;;;;;;20.90;13.93;;;28.30;99.90;;;;;;10211497;23;20266;-84
2022/08/19 16:35:52;;;;;;;14.85;12.18;;;28.20;99.90;;;;;;10215646;23;20318;-82
2022/08/19 16:41:08;;;;;;;16.23;13.38;;;28.10;99.90;;;;;;10191693;29;20234;-82
2022/08/19 16:46:11;;;;;;;13.85;12.23;;;28.00;99.90;;;;;;10191879;29;20274;-82
2022/08/19 16:51:21;;;;;;;15.07;12.77;;;27.90;99.90;;;;;;10191860;29;20211;-81
2022/08/19 16:56:24;;;;;;;17.13;14.00;;;27.90;99.90;;;;;;10190451;29;20563;-82
2022/08/19 17:01:27;;;;;;;13.73;12.32;;;27.80;99.90;;;;;;10209448;29;20754;-81
2022/08/19 17:06:29;;;;;;;18.65;14.02;;;27.80;99.90;;;;;;10191535;29;20238;-81
2022/08/19 17:11:33;;;;;;;15.48;13.57;;;27.70;99.90;;;;;;10209019;29;20262;-82
2022/08/19 17:16:36;;;;;;;20.00;13.60;;;27.60;99.90;;;;;;10191459;29;20262;-82
2022/08/19 17:21:39;;;;;;;17.73;14.18;;;27.50;99.90;;;;;;10208202;29;20238;-82
2022/08/19 17:26:42;;;;;;;22.08;16.42;;;27.50;99.90;;;;;;10194192;29;20300;-82
2022/08/19 17:31:45;;;;;;;20.02;16.83;;;27.40;99.90;;;;;;10216571;29;20294;-81
2022/08/19 17:36:47;;;;;;;19.58;14.55;;;27.30;99.90;;;;;;10215929;29;20250;-81
2022/08/19 17:41:50;;;;;;;16.13;14.35;;;27.30;99.90;;;;;;10215939;29;20231;-81
2022/08/19 17:46:52;;;;;;;17.27;13.70;;;27.20;99.90;;;;;;10216137;29;20282;-81
2022/08/19 17:51:55;;;;;;;25.15;17.00;;;27.10;99.90;;;;;;10215942;29;20254;-81
2022/08/19 17:56:58;;;;;;;14.70;13.18;;;27.00;99.90;;;;;;10198369;29;20259;-81
2022/08/19 18:02:02;;;;;;;21.90;17.45;;;27.00;99.90;;;;;;10182886;29;20258;-82
2022/08/19 18:07:05;;;;;;;15.15;13.02;;;27.00;99.90;;;;;;10214635;29;20267;-82
2022/08/19 18:12:10;;;;;;;16.60;13.93;;;26.90;99.90;;;;;;10197228;29;20211;-81
2022/08/19 18:17:17;;;;;;;15.88;13.85;;;26.90;99.90;;;;;;10215005;29;20279;-81
2022/08/19 18:22:37;;;;;;;17.65;14.40;;;26.90;99.90;;;;;;10203509;29;20656;-82
2022/08/19 18:27:41;;;;;;;43.25;15.27;;;26.80;99.90;;;;;;10210902;29;20230;-81
2022/08/19 18:32:45;;;;;;;26.23;19.25;;;26.80;99.90;;;;;;10206147;23;20750;-83
2022/08/19 18:37:48;;;;;;;25.27;17.85;;;27.20;99.90;;;;;;10128365;29;20628;-81
2022/08/19 18:53:38;;;;;;;24.35;17.67;;;27.70;99.90;;;;;;10213107;23;20235;-92
2022/08/19 18:58:42;;;;;;;22.83;18.15;;;28.00;99.90;;;;;;10222081;28;20204;-94
2022/08/19 19:03:47;;;;;;;23.10;18.42;;;28.20;99.90;;;;;;10208931;28;20227;-95
2022/08/19 19:08:52;;;;;;;22.42;18.00;;;28.40;99.90;;;;;;10207914;28;20212;-93
2022/08/19 19:13:54;;;;;;;19.40;17.15;;;28.50;99.90;;;;;;10215602;28;20228;-94
2022/08/19 19:18:57;;;;;;;20.50;17.42;;;28.70;99.90;;;;;;10209062;28;20401;-94
2022/08/19 19:24:00;;;;;;;19.55;16.95;;;28.80;99.90;;;;;;10187747;28;20192;-94
2022/08/19 19:29:03;;;;;;;21.40;17.20;;;28.80;99.90;;;;;;10183774;29;20256;-95
2022/08/19 19:34:06;;;;;;;19.58;15.88;;;28.90;99.90;;;;;;10171457;29;20219;-94
2022/08/19 19:39:28;;;;;;;18.17;15.55;;;28.90;99.90;;;;;;9481884;29;10000630;-93
2022/08/19 19:44:50;;;;;;;18.08;15.60;;;28.90;99.90;;;;;;10174891;29;20263;-95
2022/08/19 19:49:54;;;;;;;19.13;15.05;;;28.90;99.90;;;;;;10169428;29;20203;-94
2022/08/19 19:55:17;;;;;;;19.55;16.23;;;28.90;99.90;;;;;;10168757;29;20267;-95
2022/08/19 20:00:20;;;;;;;18.80;15.77;;;28.90;99.90;;;;;;10186110;29;20236;-94
2022/08/19 20:05:24;;;;;;;20.80;15.90;;;28.90;99.90;;;;;;10165706;29;20577;-94
2022/08/19 20:10:27;;;;;;;18.20;15.95;;;28.80;99.90;;;;;;10155186;29;20213;-93
2022/08/19 20:15:30;;;;;;;18.40;15.32;;;28.80;99.90;;;;;;10165804;29;20228;-94
2022/08/19 20:20:34;;;;;;;18.80;15.27;;;28.80;99.90;;;;;;10165759;29;20207;-93
2022/08/19 20:25:37;;;;;;;17.88;14.65;;;28.80;99.90;;;;;;10171696;29;20270;-94
2022/08/19 20:30:42;;;;;;;18.33;15.18;;;28.80;99.90;;;;;;10185695;29;20207;-94
2022/08/19 20:35:48;;;;;;;21.35;17.45;;;28.70;99.90;;;;;;10165798;29;20286;-94
2022/08/19 20:40:51;;;;;;;18.13;15.60;;;28.70;99.90;;;;;;10165382;29;20259;-93
2022/08/19 20:45:54;;;;;;;25.98;20.85;;;28.60;99.90;;;;;;10128409;29;20212;-93
2022/08/19 20:50:57;;;;;;;24.83;17.10;;;28.70;99.90;;;;;;10168107;29;20239;-93
2022/08/19 20:56:00;;;;;;;16.92;14.93;;;28.40;99.90;;;;;;10157066;29;20290;-94
2022/08/19 21:01:05;;;;;;;17.13;15.07;;;28.40;99.90;;;;;;10157708;29;20200;-92
2022/08/19 21:06:11;;;;;;;21.00;17.05;;;28.40;99.90;;;;;;10156557;29;20216;-93
2022/08/19 21:11:15;;;;;;;17.77;15.88;;;28.10;99.90;;;;;;10157000;29;20290;-94
2022/08/19 21:16:24;;;;;;;18.65;15.85;;;28.30;99.90;;;;;;10156767;29;20219;-94
2022/08/19 21:21:27;;;;;;;19.75;16.20;;;28.10;99.90;;;;;;10159612;29;20211;-93
2022/08/19 21:26:29;;;;;;;17.63;15.68;;;28.10;99.90;;;;;;10161107;29;20208;-94
2022/08/19 21:31:32;;;;;;;17.33;15.45;;;28.20;99.90;;;;;;10153456;29;20207;-92
2022/08/19 21:36:35;;;;;;;20.33;14.88;;;28.30;99.90;;;;;;10151662;29;20270;-94
2022/08/19 21:41:37;;;;;;;17.67;15.45;;;28.40;99.90;;;;;;10167040;29;20328;-93
2022/08/19 21:46:45;;;;;;;24.75;21.42;;;28.50;99.90;;;;;;10181172;29;20733;-95
2022/08/19 21:52:03;;;;;;;22.55;17.27;;;28.40;99.90;;;;;;10167983;29;20239;-94
2022/08/19 21:57:07;;;;;;;18.38;15.52;;;28.30;99.90;;;;;;10173769;29;20223;-94
2022/08/19 22:02:13;;;;;;;19.30;15.90;;;28.30;99.90;;;;;;10146525;29;20198;-93
2022/08/19 22:07:22;;;;;;;18.98;16.48;;;28.30;99.90;;;;;;10168963;29;20216;-94
2022/08/19 22:12:28;;;;;;;18.02;15.70;;;28.30;99.90;;;;;;10169511;29;20239;-94
2022/08/19 22:17:32;;;;;;;19.40;14.95;;;28.30;99.90;;;;;;10178585;29;20224;-94
2022/08/19 22:22:35;;;;;;;17.52;15.63;;;28.40;99.90;;;;;;10164429;29;20724;-94
2022/08/19 22:27:41;;;;;;;18.30;15.80;;;28.30;99.90;;;;;;10168855;29;20208;-93
2022/08/19 22:32:47;;;;;;;16.55;14.82;;;28.30;99.90;;;;;;10132186;29;20220;-91
2022/08/19 22:37:58;;;;;;;17.60;15.73;;;28.30;99.90;;;;;;10196840;29;20228;-94
2022/08/19 22:43:09;;;;;;;20.17;16.35;;;28.20;99.90;;;;;;10187749;29;20204;-93
2022/08/19 22:48:13;;;;;;;30.15;25.80;;;28.30;99.90;;;;;;10162337;29;20204;-91
2022/08/19 22:53:16;;;;;;;22.08;18.95;;;25.60;99.90;;;;;;10160081;29;20298;-92
2022/08/19 22:58:19;;;;;;;19.92;17.90;;;27.10;99.90;;;;;;10176238;29;20259;-93
2022/08/19 23:03:29;;;;;;;18.85;16.60;;;27.60;99.90;;;;;;10158498;29;20232;-93
2022/08/19 23:08:32;;;;;;;21.25;18.50;;;27.80;99.90;;;;;;10159137;29;20286;-94
2022/08/19 23:13:34;;;;;;;21.77;18.30;;;27.90;99.90;;;;;;10158500;29;20286;-93
2022/08/19 23:18:37;;;;;;;19.10;17.10;;;27.90;99.90;;;;;;10173210;29;20231;-92
2022/08/19 23:23:40;;;;;;;19.58;17.45;;;27.90;99.90;;;;;;10157463;29;20245;-93
2022/08/19 23:34:04;;;;;;;20.60;17.50;;;28.00;99.90;;;;;;10152113;29;20624;-93
2022/08/19 23:39:07;;;;;;;19.20;17.20;;;28.00;99.90;;;;;;10157299;29;20315;-93
2022/08/19 23:44:09;;;;;;;19.73;17.63;;;27.90;99.90;;;;;;10157397;29;20195;-94
2022/08/19 23:49:16;;;;;;;19.23;17.20;;;27.90;99.90;;;;;;10157759;29;20740;-96
2022/08/19 23:54:18;;;;;;;19.42;17.42;;;27.90;99.90;;;;;;10158460;29;20231;-94
2022/08/19 23:59:21;;;;;;;20.35;18.15;;;27.80;99.90;;;;;;10172191;29;20720;-94
